createdAt,value
2018-03-19T00:00:42.023Z,-7.60
2018-03-19T00:03:09.606Z,-7.60
2018-03-19T00:05:37.199Z,-7.60
2018-03-19T00:08:04.803Z,-7.60
2018-03-19T00:10:33.158Z,-7.70
2018-03-19T00:13:00.743Z,-7.70
2018-03-19T00:15:29.096Z,-7.70
2018-03-19T00:17:56.687Z,-7.70
2018-03-19T00:20:25.044Z,-7.70
2018-03-19T00:22:52.628Z,-7.70
2018-03-19T00:25:20.978Z,-7.80
2018-03-19T00:27:48.611Z,-7.80
2018-03-19T00:30:16.179Z,-7.80
2018-03-19T00:32:43.773Z,-7.90
2018-03-19T00:35:11.379Z,-7.90
2018-03-19T00:37:39.726Z,-8.00
2018-03-19T00:40:07.323Z,-8.00
2018-03-19T00:42:35.676Z,-8.00
2018-03-19T00:45:03.309Z,-8.00
2018-03-19T00:47:30.947Z,-8.00
2018-03-19T00:49:58.552Z,-8.00
2018-03-19T00:52:26.140Z,-8.00
2018-03-19T00:54:53.733Z,-8.10
2018-03-19T00:57:22.102Z,-8.10
2018-03-19T00:59:49.691Z,-8.10
2018-03-19T01:02:17.280Z,-8.10
2018-03-19T01:04:44.871Z,-8.10
2018-03-19T01:07:12.454Z,-8.10
2018-03-19T01:09:40.045Z,-8.10
2018-03-19T01:12:08.399Z,-8.20
2018-03-19T01:14:35.983Z,-8.20
2018-03-19T01:17:04.391Z,-8.20
2018-03-19T01:19:31.974Z,-8.20
2018-03-19T01:21:59.563Z,-8.20
2018-03-19T01:24:27.147Z,-8.30
2018-03-19T01:26:54.735Z,-8.30
2018-03-19T01:29:22.319Z,-8.30
2018-03-19T01:31:49.907Z,-8.30
2018-03-19T01:34:17.495Z,-8.30
2018-03-19T01:36:45.127Z,-8.30
2018-03-19T01:39:12.719Z,-8.30
2018-03-19T01:41:40.323Z,-8.30
2018-03-19T01:44:08.689Z,-8.40
2018-03-19T01:46:36.365Z,-8.40
2018-03-19T01:49:04.714Z,-8.40
2018-03-19T01:51:32.300Z,-8.50
2018-03-19T01:54:00.711Z,-8.40
2018-03-19T01:56:28.309Z,-8.50
2018-03-19T01:58:55.947Z,-8.50
2018-03-19T02:01:23.539Z,-8.50
2018-03-19T02:03:51.131Z,-8.50
2018-03-19T02:06:18.743Z,-8.50
2018-03-19T02:08:46.339Z,-8.50
2018-03-19T02:11:13.923Z,-8.50
2018-03-19T02:13:41.507Z,-8.60
2018-03-19T02:16:09.909Z,-8.60
2018-03-19T02:18:38.258Z,-8.60
2018-03-19T02:21:05.847Z,-8.60
2018-03-19T02:23:34.204Z,-8.60
2018-03-19T02:26:01.790Z,-8.70
2018-03-19T02:28:30.144Z,-8.70
2018-03-19T02:30:57.735Z,-8.70
2018-03-19T02:33:26.091Z,-8.70
2018-03-19T02:35:53.703Z,-8.70
2018-03-19T02:38:21.296Z,-8.70
2018-03-19T02:40:48.879Z,-8.70
2018-03-19T02:43:16.471Z,-8.70
2018-03-19T02:45:44.832Z,-8.70
2018-03-19T02:48:12.466Z,-8.70
2018-03-19T02:50:40.055Z,-8.70
2018-03-19T02:53:07.647Z,-8.80
2018-03-19T02:55:35.269Z,-8.80
2018-03-19T02:58:02.876Z,-8.80
2018-03-19T03:00:31.232Z,-8.80
2018-03-19T03:02:58.822Z,-8.80
2018-03-19T03:05:27.183Z,-8.90
2018-03-19T03:07:54.787Z,-8.90
2018-03-19T03:10:23.142Z,-8.90
2018-03-19T03:12:50.751Z,-8.90
2018-03-19T03:15:18.339Z,-8.90
2018-03-19T03:17:45.922Z,-8.90
2018-03-19T03:20:13.511Z,-9.00
2018-03-19T03:22:41.102Z,-8.90
2018-03-19T03:25:08.742Z,-9.00
2018-03-19T03:27:37.104Z,-9.00
2018-03-19T03:30:04.783Z,-9.00
2018-03-19T03:32:32.382Z,-9.00
2018-03-19T03:34:59.968Z,-9.00
2018-03-19T03:37:27.606Z,-9.00
2018-03-19T03:39:55.963Z,-9.00
2018-03-19T03:42:23.550Z,-9.00
2018-03-19T03:44:51.903Z,-9.10
2018-03-19T03:47:19.494Z,-9.10
2018-03-19T03:49:47.822Z,-9.00
2018-03-19T03:52:15.376Z,-9.10
2018-03-19T03:54:42.939Z,-9.10
2018-03-19T03:57:10.494Z,-9.10
2018-03-19T03:59:38.050Z,-9.10
2018-03-19T04:02:05.615Z,-9.10
2018-03-19T04:04:33.190Z,-9.20
2018-03-19T04:07:00.742Z,-9.20
2018-03-19T04:09:28.298Z,-9.20
2018-03-19T04:11:56.622Z,-9.20
2018-03-19T04:14:24.174Z,-9.30
2018-03-19T04:16:51.726Z,-9.30
2018-03-19T04:19:19.278Z,-9.30
2018-03-19T04:21:46.874Z,-9.30
2018-03-19T04:24:14.478Z,-9.30
2018-03-19T04:26:42.010Z,-9.40
2018-03-19T04:29:09.566Z,-9.40
2018-03-19T04:31:37.177Z,-9.50
2018-03-19T04:34:04.702Z,-9.50
2018-03-19T04:36:32.258Z,-9.50
2018-03-19T04:38:59.812Z,-9.50
2018-03-19T04:41:27.376Z,-9.50
2018-03-19T04:43:54.930Z,-9.60
2018-03-19T04:46:22.483Z,-9.60
2018-03-19T04:48:50.041Z,-9.60
2018-03-19T04:51:18.392Z,-9.60
2018-03-19T04:53:45.975Z,-9.60
2018-03-19T04:56:14.325Z,-9.60
2018-03-19T04:58:41.919Z,-9.60
2018-03-19T05:01:10.320Z,-9.60
2018-03-19T05:03:37.906Z,-9.60
2018-03-19T05:06:05.491Z,-9.60
2018-03-19T05:08:33.076Z,-9.60
2018-03-19T05:11:00.676Z,-9.60
2018-03-19T05:13:29.027Z,-9.60
2018-03-19T05:15:56.611Z,-9.60
2018-03-19T05:18:24.986Z,-9.60
2018-03-19T05:20:52.572Z,-9.60
2018-03-19T05:23:20.162Z,-9.70
2018-03-19T05:25:47.750Z,-9.70
2018-03-19T05:28:15.349Z,-9.70
2018-03-19T05:30:43.699Z,-9.70
2018-03-19T05:33:11.350Z,-9.70
2018-03-19T05:35:38.971Z,-9.70
2018-03-19T05:38:07.323Z,-9.70
2018-03-19T05:40:34.908Z,-9.70
2018-03-19T05:43:03.262Z,-9.60
2018-03-19T05:45:30.846Z,-9.70
2018-03-19T05:47:58.438Z,-9.70
2018-03-19T05:50:26.027Z,-9.60
2018-03-19T05:52:53.652Z,-9.60
2018-03-19T05:55:22.003Z,-9.60
2018-03-19T05:57:49.643Z,-9.60
2018-03-19T06:00:17.299Z,-9.60
2018-03-19T06:02:44.886Z,-9.50
2018-03-19T06:05:12.471Z,-9.50
2018-03-19T06:07:40.068Z,-9.50
2018-03-19T06:10:08.427Z,-9.30
2018-03-19T06:12:36.016Z,-9.40
2018-03-19T06:15:04.379Z,-9.30
2018-03-19T06:17:31.963Z,-9.30
2018-03-19T06:19:59.551Z,-9.20
2018-03-19T06:22:27.138Z,-9.20
2018-03-19T06:24:54.723Z,-9.20
2018-03-19T06:27:22.310Z,-9.10
2018-03-19T06:29:50.664Z,-9.10
2018-03-19T06:32:18.255Z,-9.20
2018-03-19T06:34:45.839Z,-9.10
2018-03-19T06:37:14.192Z,-9.00
2018-03-19T06:39:41.782Z,-9.00
2018-03-19T06:42:10.131Z,-8.80
2018-03-19T06:44:37.735Z,-8.80
2018-03-19T06:47:05.324Z,-8.80
2018-03-19T06:49:32.907Z,-8.70
2018-03-19T06:52:00.496Z,-8.70
2018-03-19T06:54:28.078Z,-8.70
2018-03-19T06:56:56.426Z,-8.60
2018-03-19T06:59:24.020Z,-8.60
2018-03-19T07:01:51.609Z,-8.50
2018-03-19T07:04:19.203Z,-8.50
2018-03-19T07:06:46.783Z,-8.40
2018-03-19T07:09:14.372Z,-8.30
2018-03-19T07:11:41.962Z,-8.20
2018-03-19T07:14:09.562Z,-8.20
2018-03-19T07:16:37.151Z,-8.00
2018-03-19T07:19:04.734Z,-7.80
2018-03-19T07:21:32.323Z,-7.70
2018-03-19T07:23:59.912Z,-7.60
2018-03-19T07:26:27.507Z,-7.60
2018-03-19T07:28:55.119Z,-7.50
2018-03-19T07:31:22.726Z,-7.40
2018-03-19T07:33:50.322Z,-7.40
2018-03-19T07:36:17.910Z,-7.40
2018-03-19T07:38:46.267Z,-7.10
2018-03-19T07:41:13.868Z,-7.10
2018-03-19T07:43:41.459Z,-7.00
2018-03-19T07:46:09.051Z,-6.80
2018-03-19T07:48:36.698Z,-6.80
2018-03-19T07:51:04.293Z,-6.70
2018-03-19T07:53:31.887Z,-6.70
2018-03-19T07:55:59.523Z,-6.50
2018-03-19T07:58:27.114Z,-6.60
2018-03-19T08:00:55.475Z,-6.40
2018-03-19T08:03:23.063Z,-6.40
2018-03-19T08:05:51.416Z,-6.50
2018-03-19T08:08:19.043Z,-6.50
2018-03-19T08:10:46.656Z,-6.60
2018-03-19T08:13:15.015Z,-6.30
2018-03-19T08:15:43.383Z,-6.10
2018-03-19T08:18:10.975Z,-6.20
2018-03-19T08:20:38.563Z,-6.00
2018-03-19T08:23:06.919Z,-5.90
2018-03-19T08:25:34.502Z,-5.90
2018-03-19T08:28:02.860Z,-5.80
2018-03-19T08:30:30.506Z,-5.80
2018-03-19T08:32:58.102Z,-5.70
2018-03-19T08:35:25.695Z,-5.70
2018-03-19T08:37:53.283Z,-5.70
2018-03-19T08:40:20.882Z,-5.70
2018-03-19T08:42:48.484Z,-5.50
2018-03-19T08:45:16.830Z,-5.30
2018-03-19T08:47:44.418Z,-5.30
2018-03-19T08:50:12.007Z,-5.10
2018-03-19T08:52:39.594Z,-5.10
2018-03-19T08:55:07.180Z,-5.00
2018-03-19T08:57:34.782Z,-5.10
2018-03-19T09:00:03.176Z,-4.80
2018-03-19T09:02:31.531Z,-4.80
2018-03-19T09:04:59.118Z,-4.80
2018-03-19T09:07:26.715Z,-4.60
2018-03-19T09:09:54.298Z,-4.70
2018-03-19T09:12:21.891Z,-4.60
2018-03-19T09:14:49.470Z,-4.50
2018-03-19T09:17:17.118Z,-4.40
2018-03-19T09:19:44.742Z,-4.30
2018-03-19T09:22:12.356Z,-4.40
2018-03-19T09:24:39.938Z,-4.30
2018-03-19T09:27:07.536Z,-4.20
2018-03-19T09:29:35.136Z,-4.50
2018-03-19T09:32:02.774Z,-4.50
2018-03-19T09:34:30.358Z,-4.40
2018-03-19T09:36:57.955Z,-4.40
2018-03-19T09:39:26.314Z,-4.30
2018-03-19T09:41:53.928Z,-4.30
2018-03-19T09:44:21.528Z,-4.20
2018-03-19T09:46:49.127Z,-4.10
2018-03-19T09:49:16.731Z,-4.20
2018-03-19T09:51:44.314Z,-4.10
2018-03-19T09:54:11.913Z,-3.90
2018-03-19T09:56:39.508Z,-3.90
2018-03-19T09:59:07.859Z,-3.90
2018-03-19T10:01:35.454Z,-3.90
2018-03-19T10:04:03.848Z,-3.90
2018-03-19T10:06:31.562Z,-3.90
2018-03-19T10:08:59.122Z,-4.00
2018-03-19T10:11:26.730Z,-3.90
2018-03-19T10:13:54.360Z,-3.70
2018-03-19T10:16:21.954Z,-3.30
2018-03-19T10:18:50.312Z,-3.10
2018-03-19T10:21:17.914Z,-3.10
2018-03-19T10:23:45.504Z,-3.10
2018-03-19T10:26:13.087Z,-3.40
2018-03-19T10:28:40.796Z,-3.30
2018-03-19T10:31:09.196Z,-3.40
2018-03-19T10:33:36.787Z,-3.40
2018-03-19T10:36:04.424Z,-3.40
2018-03-19T10:38:32.855Z,-3.00
2018-03-19T10:41:00.439Z,-3.10
2018-03-19T10:43:28.035Z,-3.10
2018-03-19T10:45:56.394Z,-3.00
2018-03-19T10:48:24.048Z,-3.00
2018-03-19T10:50:51.635Z,-3.10
2018-03-19T10:53:19.982Z,-3.00
2018-03-19T10:55:47.571Z,-3.00
2018-03-19T10:58:15.159Z,-2.80
2018-03-19T11:00:42.751Z,-2.70
2018-03-19T11:03:10.354Z,-2.70
2018-03-19T11:05:43.598Z,-2.50
2018-03-19T11:08:11.207Z,-2.50
2018-03-19T11:10:38.789Z,-2.30
2018-03-19T11:13:06.379Z,-2.40
2018-03-19T11:15:33.974Z,-2.50
2018-03-19T11:18:01.561Z,-2.50
2018-03-19T11:20:29.180Z,-2.50
2018-03-19T11:22:56.778Z,-2.40
2018-03-19T11:25:24.403Z,-2.10
2018-03-19T11:27:52.764Z,-2.10
2018-03-19T11:30:20.394Z,-2.20
2018-03-19T11:32:47.978Z,-2.10
2018-03-19T11:35:15.563Z,-2.30
2018-03-19T11:37:43.959Z,-2.10
2018-03-19T11:40:12.313Z,-2.00
2018-03-19T11:42:39.895Z,-2.00
2018-03-19T11:45:08.251Z,-1.60
2018-03-19T11:47:35.834Z,-1.60
2018-03-19T11:50:03.438Z,-1.60
2018-03-19T11:52:31.048Z,-1.30
2018-03-19T11:54:58.635Z,-1.20
2018-03-19T11:57:26.234Z,-1.20
2018-03-19T11:59:53.818Z,-0.90
2018-03-19T12:02:21.501Z,-0.80
2018-03-19T12:04:49.141Z,-0.80
2018-03-19T12:07:16.715Z,-0.70
2018-03-19T12:09:44.380Z,-0.60
2018-03-19T12:12:11.979Z,-0.60
2018-03-19T12:14:40.339Z,-0.80
2018-03-19T12:17:07.922Z,-0.80
2018-03-19T12:19:35.539Z,-0.90
2018-03-19T12:22:03.132Z,-1.00
2018-03-19T12:24:30.719Z,-0.80
2018-03-19T12:26:58.408Z,-1.00
2018-03-19T12:29:26.766Z,-1.00
2018-03-19T12:31:54.352Z,-1.00
2018-03-19T12:34:22.742Z,-1.00
2018-03-19T12:36:52.935Z,-1.00
2018-03-19T12:39:20.527Z,-0.90
2018-03-19T12:41:48.236Z,-0.50
2018-03-19T12:44:16.427Z,-0.30
2018-03-19T12:46:44.050Z,-0.40
2018-03-19T12:49:12.395Z,-0.70
2018-03-19T12:51:39.979Z,-0.70
2018-03-19T12:54:07.774Z,-0.60
2018-03-19T12:56:35.366Z,-0.50
2018-03-19T12:59:02.986Z,-0.30
2018-03-19T13:01:31.364Z,-0.10
2018-03-19T13:03:59.735Z,0.10
2018-03-19T13:06:27.324Z,0.10
2018-03-19T13:08:56.939Z,-0.20
2018-03-19T13:11:24.508Z,-0.20
2018-03-19T13:13:52.104Z,-0.20
2018-03-19T13:16:19.688Z,0.00
2018-03-19T13:18:47.269Z,0.10
2018-03-19T13:21:15.056Z,0.10
2018-03-19T13:23:43.423Z,-0.20
2018-03-19T13:26:11.011Z,-0.30
2018-03-19T13:28:39.434Z,-0.10
2018-03-19T13:31:07.157Z,-0.10
2018-03-19T13:33:34.758Z,0.00
2018-03-19T13:36:02.455Z,-0.30
2018-03-19T13:38:30.039Z,-0.40
2018-03-19T13:40:57.618Z,-0.60
2018-03-19T13:43:25.219Z,-0.40
2018-03-19T13:45:52.843Z,-0.60
2018-03-19T13:48:21.195Z,-0.40
2018-03-19T13:50:48.916Z,-0.50
2018-03-19T13:53:16.654Z,-0.50
2018-03-19T13:55:44.243Z,-0.30
2018-03-19T13:58:11.839Z,-0.20
2018-03-19T14:00:49.594Z,-0.20
2018-03-19T14:03:17.949Z,-0.30
2018-03-19T14:05:45.539Z,-0.30
2018-03-19T14:08:13.887Z,-0.30
2018-03-19T14:10:41.638Z,-0.30
2018-03-19T14:13:09.222Z,-0.20
2018-03-19T14:15:36.803Z,-0.20
2018-03-19T14:18:04.390Z,-0.20
2018-03-19T14:20:32.169Z,-0.30
2018-03-19T14:22:59.752Z,-0.30
2018-03-19T14:25:27.355Z,-0.20
2018-03-19T14:27:54.984Z,-0.20
2018-03-19T14:30:22.734Z,-0.30
2018-03-19T14:32:50.320Z,-0.50
2018-03-19T14:35:17.910Z,-0.50
2018-03-19T14:37:45.526Z,-0.40
2018-03-19T14:40:13.121Z,-0.40
2018-03-19T14:42:42.165Z,-0.40
2018-03-19T14:45:09.754Z,-0.40
2018-03-19T14:47:37.395Z,-0.40
2018-03-19T14:50:05.013Z,-0.40
2018-03-19T14:52:32.602Z,-0.50
2018-03-19T14:55:00.190Z,-0.60
2018-03-19T14:57:27.790Z,-0.60
2018-03-19T14:59:55.385Z,-0.80
2018-03-19T15:02:22.975Z,-0.70
2018-03-19T15:04:50.574Z,-0.70
2018-03-19T15:07:19.007Z,-0.50
2018-03-19T15:09:46.586Z,-0.50
2018-03-19T15:12:14.171Z,-0.40
2018-03-19T15:14:42.519Z,-0.30
2018-03-19T15:17:10.147Z,-0.30
2018-03-19T15:19:37.744Z,-0.10
2018-03-19T15:22:05.412Z,-0.20
2018-03-19T15:24:32.998Z,-0.30
2018-03-19T15:27:00.578Z,-0.30
2018-03-19T15:29:28.971Z,-0.30
2018-03-19T15:31:57.327Z,-0.30
2018-03-19T15:34:24.919Z,-0.30
2018-03-19T15:36:53.294Z,-0.40
2018-03-19T15:39:21.646Z,-0.60
2018-03-19T15:41:49.239Z,-0.70
2018-03-19T15:44:17.595Z,-0.80
2018-03-19T15:46:45.178Z,-0.80
2018-03-19T15:49:12.767Z,-0.80
2018-03-19T15:51:41.363Z,-0.70
2018-03-19T15:54:08.950Z,-0.80
2018-03-19T15:56:36.535Z,-0.70
2018-03-19T15:59:04.165Z,-0.70
2018-03-19T16:01:31.750Z,-0.80
2018-03-19T16:03:59.343Z,-0.80
2018-03-19T16:06:26.927Z,-0.80
2018-03-19T16:08:55.273Z,-1.00
2018-03-19T16:11:22.858Z,-1.00
2018-03-19T16:13:50.446Z,-1.00
2018-03-19T16:16:18.868Z,-1.20
2018-03-19T16:18:46.508Z,-1.20
2018-03-19T16:21:14.112Z,-1.20
2018-03-19T16:23:41.726Z,-1.30
2018-03-19T16:26:10.074Z,-1.30
2018-03-19T16:28:37.659Z,-1.40
2018-03-19T16:31:05.247Z,-1.40
2018-03-19T16:33:33.604Z,-1.50
2018-03-19T16:36:01.200Z,-1.60
2018-03-19T16:38:28.815Z,-1.60
2018-03-19T16:40:56.411Z,-1.70
2018-03-19T16:43:24.009Z,-1.70
2018-03-19T16:45:51.698Z,-1.80
2018-03-19T16:48:20.050Z,-2.00
2018-03-19T16:50:47.722Z,-2.00
2018-03-19T16:53:15.318Z,-2.00
2018-03-19T16:55:43.115Z,-2.10
2018-03-19T16:58:10.720Z,-2.20
2018-03-19T17:00:38.757Z,-2.20
2018-03-19T17:03:10.406Z,-2.30
2018-03-19T17:05:38.211Z,-2.30
2018-03-19T17:08:05.926Z,-2.40
2018-03-19T17:10:33.510Z,-2.40
2018-03-19T17:13:01.111Z,-2.40
2018-03-19T17:15:28.730Z,-2.50
2018-03-19T17:17:56.394Z,-2.50
2018-03-19T17:20:23.978Z,-2.50
2018-03-19T17:22:51.591Z,-2.60
2018-03-19T17:25:19.431Z,-2.60
2018-03-19T17:27:47.779Z,-2.70
2018-03-19T17:30:15.359Z,-2.70
2018-03-19T17:32:43.066Z,-2.70
2018-03-19T17:35:10.679Z,-2.70
2018-03-19T17:37:38.315Z,-2.80
2018-03-19T17:40:05.907Z,-2.80
2018-03-19T17:42:33.491Z,-2.80
2018-03-19T17:45:01.079Z,-2.80
2018-03-19T17:47:28.754Z,-2.90
2018-03-19T17:49:56.281Z,-3.00
2018-03-19T17:52:23.875Z,-3.00
2018-03-19T17:54:52.351Z,-3.10
2018-03-19T17:57:20.719Z,-3.20
2018-03-19T17:59:48.313Z,-3.20
2018-03-19T18:02:16.295Z,-3.20
2018-03-19T18:04:43.883Z,-3.20
2018-03-19T18:07:11.508Z,-3.30
2018-03-19T18:09:39.098Z,-3.30
2018-03-19T18:12:06.731Z,-3.40
2018-03-19T18:14:35.263Z,-3.50
2018-03-19T18:17:02.910Z,-3.50
2018-03-19T18:19:30.500Z,-3.50
2018-03-19T18:21:58.106Z,-3.60
2018-03-19T18:24:26.459Z,-3.70
2018-03-19T18:26:54.051Z,-3.70
2018-03-19T18:29:22.402Z,-3.70
2018-03-19T18:31:49.987Z,-3.70
2018-03-19T18:34:17.607Z,-3.70
2018-03-19T18:36:45.200Z,-3.80
2018-03-19T18:39:12.802Z,-3.80
2018-03-19T18:41:41.163Z,-4.00
2018-03-19T18:44:08.803Z,-3.90
2018-03-19T18:46:37.154Z,-4.00
2018-03-19T18:49:04.751Z,-4.10
2018-03-19T18:51:37.611Z,-4.10
2018-03-19T18:54:05.300Z,-4.10
2018-03-19T18:56:35.549Z,-4.10
2018-03-19T18:59:03.140Z,-4.20
2018-03-19T19:01:31.630Z,-4.30
2018-03-19T19:04:00.275Z,-4.30
2018-03-19T19:06:27.918Z,-4.30
2018-03-19T19:08:55.568Z,-4.30
2018-03-19T19:11:23.223Z,-4.40
2018-03-19T19:13:50.828Z,-4.40
2018-03-19T19:16:18.466Z,-4.50
2018-03-19T19:18:46.056Z,-4.40
2018-03-19T19:21:16.674Z,-4.50
2018-03-19T19:23:44.266Z,-4.60
2018-03-19T19:26:11.854Z,-4.60
2018-03-19T19:28:39.462Z,-4.70
2018-03-19T19:31:07.058Z,-4.70
2018-03-19T19:33:34.651Z,-4.80
2018-03-19T19:36:02.239Z,-4.90
2018-03-19T19:38:30.591Z,-5.00
2018-03-19T19:40:58.184Z,-5.00
2018-03-19T19:43:25.801Z,-5.00
2018-03-19T19:45:53.388Z,-5.20
2018-03-19T19:48:20.994Z,-5.30
2018-03-19T19:50:48.598Z,-5.40
2018-03-19T19:53:16.212Z,-5.40
2018-03-19T19:55:44.564Z,-5.50
2018-03-19T19:58:13.030Z,-5.50
2018-03-19T20:00:40.678Z,-5.60
2018-03-19T20:03:08.266Z,-5.60
2018-03-19T20:05:35.854Z,-5.70
2018-03-19T20:08:03.536Z,-5.70
2018-03-19T20:10:31.923Z,-5.80
2018-03-19T20:13:00.300Z,-5.90
2018-03-19T20:15:28.670Z,-5.90
2018-03-19T20:17:56.260Z,-5.90
2018-03-19T20:20:23.952Z,-5.90
2018-03-19T20:22:51.584Z,-6.00
2018-03-19T20:25:20.013Z,-6.10
2018-03-19T20:27:47.598Z,-6.10
2018-03-19T20:30:15.202Z,-6.20
2018-03-19T20:32:42.787Z,-6.20
2018-03-19T20:35:10.367Z,-6.20
2018-03-19T20:37:37.969Z,-6.30
2018-03-19T20:40:05.602Z,-6.30
2018-03-19T20:42:33.192Z,-6.50
2018-03-19T20:45:00.784Z,-6.50
2018-03-19T20:47:29.131Z,-6.60
2018-03-19T20:49:57.489Z,-6.70
2018-03-19T20:52:25.083Z,-6.70
2018-03-19T20:54:52.666Z,-6.70
2018-03-19T20:57:20.254Z,-6.80
2018-03-19T20:59:47.843Z,-6.90
2018-03-19T21:02:15.464Z,-7.00
2018-03-19T21:04:43.826Z,-7.00
2018-03-19T21:07:11.415Z,-7.00
2018-03-19T21:09:39.788Z,-7.20
2018-03-19T21:12:07.385Z,-7.20
2018-03-19T21:14:34.982Z,-7.40
2018-03-19T21:17:02.566Z,-7.40
2018-03-19T21:19:30.151Z,-7.40
2018-03-19T21:21:57.739Z,-7.40
2018-03-19T21:24:25.351Z,-7.50
2018-03-19T21:26:52.940Z,-7.50
2018-03-19T21:29:20.526Z,-7.50
2018-03-19T21:31:48.873Z,-7.60
2018-03-19T21:34:16.457Z,-7.60
2018-03-19T21:36:44.831Z,-7.70
2018-03-19T21:39:12.431Z,-7.70
2018-03-19T21:41:40.031Z,-7.70
2018-03-19T21:44:07.614Z,-7.80
2018-03-19T21:46:35.203Z,-7.80
2018-03-19T21:49:03.567Z,-7.80
2018-03-19T21:51:31.150Z,-7.80
2018-03-19T21:53:58.758Z,-7.80
2018-03-19T21:56:26.346Z,-7.80
2018-03-19T21:58:54.703Z,-7.80
2018-03-19T22:01:22.559Z,-7.80
2018-03-19T22:03:50.179Z,-7.80
2018-03-19T22:06:17.820Z,-7.80
2018-03-19T22:08:45.410Z,-7.80
2018-03-19T22:11:12.999Z,-7.80
2018-03-19T22:13:41.349Z,-8.00
2018-03-19T22:16:08.939Z,-8.00
2018-03-19T22:18:37.286Z,-8.00
2018-03-19T22:21:04.875Z,-8.00
2018-03-19T22:23:32.493Z,-8.10
2018-03-19T22:26:00.129Z,-8.10
2018-03-19T22:28:28.538Z,-8.10
2018-03-19T22:30:56.123Z,-8.10
2018-03-19T22:33:24.483Z,-8.20
2018-03-19T22:35:52.071Z,-8.20
2018-03-19T22:38:19.657Z,-8.20
2018-03-19T22:40:47.248Z,-8.20
2018-03-19T22:43:15.604Z,-8.20
2018-03-19T22:45:43.195Z,-8.20
2018-03-19T22:48:11.558Z,-8.20
2018-03-19T22:50:39.143Z,-8.20
2018-03-19T22:53:07.497Z,-8.30
2018-03-19T22:55:35.082Z,-8.30
2018-03-19T22:58:03.491Z,-8.30
2018-03-19T23:00:31.106Z,-8.30
2018-03-19T23:02:58.742Z,-8.40
2018-03-19T23:05:26.331Z,-8.40
2018-03-19T23:07:53.919Z,-8.50
2018-03-19T23:10:21.502Z,-8.50
2018-03-19T23:12:49.860Z,-8.60
2018-03-19T23:15:17.450Z,-8.60
2018-03-19T23:17:45.806Z,-8.60
2018-03-19T23:20:13.398Z,-8.60
2018-03-19T23:22:41.750Z,-8.70
2018-03-19T23:25:09.335Z,-8.70
2018-03-19T23:27:37.700Z,-8.60
2018-03-19T23:30:05.310Z,-8.60
2018-03-19T23:32:32.909Z,-8.50
2018-03-19T23:35:00.498Z,-8.50
2018-03-19T23:37:28.083Z,-8.50
2018-03-19T23:39:56.477Z,-8.50
2018-03-19T23:42:24.082Z,-8.50
2018-03-19T23:44:51.719Z,-8.50
2018-03-19T23:47:19.301Z,-8.40
2018-03-19T23:49:46.914Z,-8.50
2018-03-19T23:52:15.276Z,-8.50
2018-03-19T23:54:42.868Z,-8.50
2018-03-19T23:57:11.228Z,-8.40
2018-03-19T23:59:38.819Z,-8.40
